sensor_id;sensor_type;location;lat;lon;timestamp;P1;durP1;ratioP1;P2;durP2;ratioP2
3311;SDS011;1668;49.648;8.570;2022-12-10T00:00:27;20.47;;;13.27;;
3311;SDS011;1668;49.648;8.570;2022-12-10T00:02:54;21.57;;;13.20;;
3311;SDS011;1668;49.648;8.570;2022-12-10T00:05:21;23.43;;;14.30;;
3311;SDS011;1668;49.648;8.570;2022-12-10T00:07:49;24.53;;;14.20;;
3311;SDS011;1668;49.648;8.570;2022-12-10T00:10:16;25.17;;;15.00;;
3311;SDS011;1668;49.648;8.570;2022-12-10T00:12:42;24.17;;;14.63;;
3311;SDS011;1668;49.648;8.570;2022-12-10T00:15:09;21.10;;;13.83;;
3311;SDS011;1668;49.648;8.570;2022-12-10T00:17:36;22.60;;;13.67;;
3311;SDS011;1668;49.648;8.570;2022-12-10T00:20:03;21.37;;;13.90;;
3311;SDS011;1668;49.648;8.570;2022-12-10T00:22:31;20.50;;;12.93;;
3311;SDS011;1668;49.648;8.570;2022-12-10T00:24:59;23.40;;;14.53;;
3311;SDS011;1668;49.648;8.570;2022-12-10T00:27:26;22.47;;;13.23;;
3311;SDS011;1668;49.648;8.570;2022-12-10T00:29:53;24.60;;;13.53;;
3311;SDS011;1668;49.648;8.570;2022-12-10T00:32:20;23.47;;;14.90;;
3311;SDS011;1668;49.648;8.570;2022-12-10T00:34:47;21.93;;;13.60;;
3311;SDS011;1668;49.648;8.570;2022-12-10T00:37:13;21.30;;;13.43;;
3311;SDS011;1668;49.648;8.570;2022-12-10T00:39:40;20.27;;;13.13;;
3311;SDS011;1668;49.648;8.570;2022-12-10T00:42:08;18.80;;;12.53;;
3311;SDS011;1668;49.648;8.570;2022-12-10T00:44:35;21.27;;;13.03;;
3311;SDS011;1668;49.648;8.570;2022-12-10T00:47:02;22.50;;;13.13;;
3311;SDS011;1668;49.648;8.570;2022-12-10T00:49:29;21.30;;;12.30;;
3311;SDS011;1668;49.648;8.570;2022-12-10T00:51:55;20.67;;;13.43;;
3311;SDS011;1668;49.648;8.570;2022-12-10T00:54:23;18.23;;;12.00;;
3311;SDS011;1668;49.648;8.570;2022-12-10T00:56:49;22.60;;;13.10;;
3311;SDS011;1668;49.648;8.570;2022-12-10T00:59:17;23.23;;;13.20;;
3311;SDS011;1668;49.648;8.570;2022-12-10T01:01:44;23.13;;;12.47;;
3311;SDS011;1668;49.648;8.570;2022-12-10T01:04:12;20.67;;;12.30;;
3311;SDS011;1668;49.648;8.570;2022-12-10T01:06:41;25.50;;;14.37;;
3311;SDS011;1668;49.648;8.570;2022-12-10T01:09:10;23.13;;;13.40;;
3311;SDS011;1668;49.648;8.570;2022-12-10T01:11:38;23.50;;;12.20;;
3311;SDS011;1668;49.648;8.570;2022-12-10T01:14:07;20.23;;;13.07;;
3311;SDS011;1668;49.648;8.570;2022-12-10T01:16:37;21.60;;;11.80;;
3311;SDS011;1668;49.648;8.570;2022-12-10T01:19:04;22.03;;;12.70;;
3311;SDS011;1668;49.648;8.570;2022-12-10T01:21:31;29.27;;;15.17;;
3311;SDS011;1668;49.648;8.570;2022-12-10T01:23:58;24.03;;;14.60;;
3311;SDS011;1668;49.648;8.570;2022-12-10T01:26:25;23.03;;;15.00;;
3311;SDS011;1668;49.648;8.570;2022-12-10T01:28:54;20.90;;;13.10;;
3311;SDS011;1668;49.648;8.570;2022-12-10T01:31:23;23.10;;;14.53;;
3311;SDS011;1668;49.648;8.570;2022-12-10T01:33:53;19.27;;;12.50;;
3311;SDS011;1668;49.648;8.570;2022-12-10T01:36:22;22.20;;;14.50;;
3311;SDS011;1668;49.648;8.570;2022-12-10T01:38:50;22.13;;;12.93;;
3311;SDS011;1668;49.648;8.570;2022-12-10T01:41:18;22.70;;;13.53;;
3311;SDS011;1668;49.648;8.570;2022-12-10T01:43:49;19.90;;;12.80;;
3311;SDS011;1668;49.648;8.570;2022-12-10T01:46:18;22.03;;;14.17;;
3311;SDS011;1668;49.648;8.570;2022-12-10T01:48:46;23.73;;;13.53;;
3311;SDS011;1668;49.648;8.570;2022-12-10T01:51:14;23.63;;;14.60;;
3311;SDS011;1668;49.648;8.570;2022-12-10T01:53:42;25.27;;;13.77;;
3311;SDS011;1668;49.648;8.570;2022-12-10T01:56:10;21.90;;;13.40;;
3311;SDS011;1668;49.648;8.570;2022-12-10T01:58:37;23.13;;;14.90;;
3311;SDS011;1668;49.648;8.570;2022-12-10T02:01:06;25.63;;;14.17;;
3311;SDS011;1668;49.648;8.570;2022-12-10T02:03:38;22.37;;;13.30;;
3311;SDS011;1668;49.648;8.570;2022-12-10T02:06:17;22.80;;;14.10;;
3311;SDS011;1668;49.648;8.570;2022-12-10T02:08:58;22.97;;;13.47;;
3311;SDS011;1668;49.648;8.570;2022-12-10T02:11:31;23.73;;;14.27;;
3311;SDS011;1668;49.648;8.570;2022-12-10T02:14:05;24.30;;;14.70;;
3311;SDS011;1668;49.648;8.570;2022-12-10T02:16:36;26.80;;;14.73;;
3311;SDS011;1668;49.648;8.570;2022-12-10T02:19:07;23.90;;;14.33;;
3311;SDS011;1668;49.648;8.570;2022-12-10T02:21:43;22.83;;;13.90;;
3311;SDS011;1668;49.648;8.570;2022-12-10T02:24:14;22.93;;;14.17;;
3311;SDS011;1668;49.648;8.570;2022-12-10T02:26:46;25.27;;;15.10;;
3311;SDS011;1668;49.648;8.570;2022-12-10T02:29:19;23.00;;;14.27;;
3311;SDS011;1668;49.648;8.570;2022-12-10T02:31:50;23.53;;;14.10;;
3311;SDS011;1668;49.648;8.570;2022-12-10T02:34:20;22.43;;;13.83;;
3311;SDS011;1668;49.648;8.570;2022-12-10T02:36:49;23.80;;;14.30;;
3311;SDS011;1668;49.648;8.570;2022-12-10T02:39:20;24.37;;;14.00;;
3311;SDS011;1668;49.648;8.570;2022-12-10T02:41:52;25.93;;;15.03;;
3311;SDS011;1668;49.648;8.570;2022-12-10T02:44:21;24.80;;;16.00;;
3311;SDS011;1668;49.648;8.570;2022-12-10T02:46:52;25.17;;;14.47;;
3311;SDS011;1668;49.648;8.570;2022-12-10T02:49:22;25.90;;;15.10;;
3311;SDS011;1668;49.648;8.570;2022-12-10T02:51:51;24.20;;;14.80;;
3311;SDS011;1668;49.648;8.570;2022-12-10T02:57:11;24.57;;;14.83;;
3311;SDS011;1668;49.648;8.570;2022-12-10T02:59:50;22.83;;;14.43;;
3311;SDS011;1668;49.648;8.570;2022-12-10T03:02:38;24.07;;;15.37;;
3311;SDS011;1668;49.648;8.570;2022-12-10T03:05:14;24.70;;;14.87;;
3311;SDS011;1668;49.648;8.570;2022-12-10T03:07:48;25.20;;;14.23;;
3311;SDS011;1668;49.648;8.570;2022-12-10T03:10:22;24.50;;;14.90;;
3311;SDS011;1668;49.648;8.570;2022-12-10T03:12:54;27.07;;;15.60;;
3311;SDS011;1668;49.648;8.570;2022-12-10T03:15:26;22.53;;;14.03;;
3311;SDS011;1668;49.648;8.570;2022-12-10T03:17:55;23.30;;;14.70;;
3311;SDS011;1668;49.648;8.570;2022-12-10T03:20:24;25.57;;;15.03;;
3311;SDS011;1668;49.648;8.570;2022-12-10T03:22:52;22.70;;;14.60;;
3311;SDS011;1668;49.648;8.570;2022-12-10T03:25:21;27.20;;;15.93;;
3311;SDS011;1668;49.648;8.570;2022-12-10T03:27:51;24.27;;;14.50;;
3311;SDS011;1668;49.648;8.570;2022-12-10T03:30:21;26.13;;;15.00;;
3311;SDS011;1668;49.648;8.570;2022-12-10T03:32:49;24.70;;;15.13;;
3311;SDS011;1668;49.648;8.570;2022-12-10T03:35:17;26.37;;;15.10;;
3311;SDS011;1668;49.648;8.570;2022-12-10T03:37:47;24.57;;;14.63;;
3311;SDS011;1668;49.648;8.570;2022-12-10T03:40:15;24.17;;;15.03;;
3311;SDS011;1668;49.648;8.570;2022-12-10T03:42:44;28.40;;;15.77;;
3311;SDS011;1668;49.648;8.570;2022-12-10T03:45:10;24.90;;;14.63;;
3311;SDS011;1668;49.648;8.570;2022-12-10T03:47:38;25.70;;;15.00;;
3311;SDS011;1668;49.648;8.570;2022-12-10T03:50:07;21.63;;;13.50;;
3311;SDS011;1668;49.648;8.570;2022-12-10T03:52:35;26.07;;;14.60;;
3311;SDS011;1668;49.648;8.570;2022-12-10T03:55:02;25.63;;;14.87;;
3311;SDS011;1668;49.648;8.570;2022-12-10T03:57:29;24.10;;;14.17;;
3311;SDS011;1668;49.648;8.570;2022-12-10T03:59:56;26.63;;;15.40;;
3311;SDS011;1668;49.648;8.570;2022-12-10T04:02:22;26.47;;;16.20;;
3311;SDS011;1668;49.648;8.570;2022-12-10T04:04:49;23.13;;;14.10;;
3311;SDS011;1668;49.648;8.570;2022-12-10T04:07:17;24.40;;;14.57;;
3311;SDS011;1668;49.648;8.570;2022-12-10T04:09:44;25.70;;;15.23;;
3311;SDS011;1668;49.648;8.570;2022-12-10T04:12:11;24.00;;;14.03;;
3311;SDS011;1668;49.648;8.570;2022-12-10T04:14:38;26.13;;;15.53;;
3311;SDS011;1668;49.648;8.570;2022-12-10T04:17:22;25.30;;;14.83;;
3311;SDS011;1668;49.648;8.570;2022-12-10T04:19:49;25.80;;;15.33;;
3311;SDS011;1668;49.648;8.570;2022-12-10T04:22:15;23.10;;;13.43;;
3311;SDS011;1668;49.648;8.570;2022-12-10T04:25:01;26.53;;;14.80;;
3311;SDS011;1668;49.648;8.570;2022-12-10T04:27:45;25.13;;;14.90;;
3311;SDS011;1668;49.648;8.570;2022-12-10T04:30:12;24.67;;;14.90;;
3311;SDS011;1668;49.648;8.570;2022-12-10T04:32:39;24.43;;;14.80;;
3311;SDS011;1668;49.648;8.570;2022-12-10T04:35:06;24.17;;;15.30;;
3311;SDS011;1668;49.648;8.570;2022-12-10T04:37:39;23.73;;;13.53;;
3311;SDS011;1668;49.648;8.570;2022-12-10T04:40:06;25.00;;;14.10;;
3311;SDS011;1668;49.648;8.570;2022-12-10T04:42:33;26.10;;;13.60;;
3311;SDS011;1668;49.648;8.570;2022-12-10T04:45:00;23.60;;;14.63;;
3311;SDS011;1668;49.648;8.570;2022-12-10T04:47:27;23.07;;;14.53;;
3311;SDS011;1668;49.648;8.570;2022-12-10T04:49:53;25.27;;;15.27;;
3311;SDS011;1668;49.648;8.570;2022-12-10T04:52:20;23.80;;;14.60;;
3311;SDS011;1668;49.648;8.570;2022-12-10T04:54:48;25.07;;;14.07;;
3311;SDS011;1668;49.648;8.570;2022-12-10T04:57:15;22.57;;;14.10;;
3311;SDS011;1668;49.648;8.570;2022-12-10T04:59:42;23.83;;;14.27;;
3311;SDS011;1668;49.648;8.570;2022-12-10T05:02:09;23.00;;;13.43;;
3311;SDS011;1668;49.648;8.570;2022-12-10T05:04:36;21.93;;;13.30;;
3311;SDS011;1668;49.648;8.570;2022-12-10T05:07:03;23.60;;;14.40;;
3311;SDS011;1668;49.648;8.570;2022-12-10T05:09:29;23.60;;;14.17;;
3311;SDS011;1668;49.648;8.570;2022-12-10T05:11:58;23.90;;;13.67;;
3311;SDS011;1668;49.648;8.570;2022-12-10T05:14:25;22.13;;;13.77;;
3311;SDS011;1668;49.648;8.570;2022-12-10T05:16:51;24.23;;;13.93;;
3311;SDS011;1668;49.648;8.570;2022-12-10T05:19:18;25.10;;;14.57;;
3311;SDS011;1668;49.648;8.570;2022-12-10T05:21:47;22.20;;;13.50;;
3311;SDS011;1668;49.648;8.570;2022-12-10T05:24:31;21.07;;;12.17;;
3311;SDS011;1668;49.648;8.570;2022-12-10T05:27:00;22.03;;;13.80;;
3311;SDS011;1668;49.648;8.570;2022-12-10T05:29:27;20.53;;;12.13;;
3311;SDS011;1668;49.648;8.570;2022-12-10T05:31:54;24.50;;;14.30;;
3311;SDS011;1668;49.648;8.570;2022-12-10T05:34:21;23.17;;;13.93;;
3311;SDS011;1668;49.648;8.570;2022-12-10T05:36:48;22.47;;;13.70;;
3311;SDS011;1668;49.648;8.570;2022-12-10T05:39:15;22.20;;;13.13;;
3311;SDS011;1668;49.648;8.570;2022-12-10T05:41:41;21.77;;;13.27;;
3311;SDS011;1668;49.648;8.570;2022-12-10T05:44:11;22.93;;;13.23;;
3311;SDS011;1668;49.648;8.570;2022-12-10T05:46:39;19.80;;;12.33;;
3311;SDS011;1668;49.648;8.570;2022-12-10T05:49:06;21.70;;;13.13;;
3311;SDS011;1668;49.648;8.570;2022-12-10T05:51:34;23.03;;;13.43;;
3311;SDS011;1668;49.648;8.570;2022-12-10T05:54:03;22.70;;;13.17;;
3311;SDS011;1668;49.648;8.570;2022-12-10T05:56:30;20.73;;;12.67;;
3311;SDS011;1668;49.648;8.570;2022-12-10T05:58:58;18.67;;;11.90;;
3311;SDS011;1668;49.648;8.570;2022-12-10T06:01:28;21.53;;;13.30;;
3311;SDS011;1668;49.648;8.570;2022-12-10T06:03:57;20.53;;;12.97;;
3311;SDS011;1668;49.648;8.570;2022-12-10T06:06:25;20.13;;;12.77;;
3311;SDS011;1668;49.648;8.570;2022-12-10T06:08:54;19.40;;;12.70;;
3311;SDS011;1668;49.648;8.570;2022-12-10T06:11:21;25.60;;;14.03;;
3311;SDS011;1668;49.648;8.570;2022-12-10T06:13:48;24.13;;;14.10;;
3311;SDS011;1668;49.648;8.570;2022-12-10T06:16:16;21.70;;;12.50;;
3311;SDS011;1668;49.648;8.570;2022-12-10T06:18:44;18.50;;;12.60;;
3311;SDS011;1668;49.648;8.570;2022-12-10T06:21:13;20.80;;;12.30;;
3311;SDS011;1668;49.648;8.570;2022-12-10T06:23:41;20.07;;;12.67;;
3311;SDS011;1668;49.648;8.570;2022-12-10T06:26:09;24.60;;;13.60;;
3311;SDS011;1668;49.648;8.570;2022-12-10T06:28:37;23.80;;;14.23;;
3311;SDS011;1668;49.648;8.570;2022-12-10T06:31:04;21.00;;;13.07;;
3311;SDS011;1668;49.648;8.570;2022-12-10T06:33:31;21.80;;;13.77;;
3311;SDS011;1668;49.648;8.570;2022-12-10T06:35:59;24.40;;;14.20;;
3311;SDS011;1668;49.648;8.570;2022-12-10T06:38:29;20.53;;;13.47;;
3311;SDS011;1668;49.648;8.570;2022-12-10T06:40:55;23.50;;;13.77;;
3311;SDS011;1668;49.648;8.570;2022-12-10T06:43:22;21.87;;;13.10;;
3311;SDS011;1668;49.648;8.570;2022-12-10T06:45:49;25.57;;;14.30;;
3311;SDS011;1668;49.648;8.570;2022-12-10T06:48:15;21.07;;;12.63;;
3311;SDS011;1668;49.648;8.570;2022-12-10T06:50:42;21.23;;;13.47;;
3311;SDS011;1668;49.648;8.570;2022-12-10T06:53:10;19.90;;;12.40;;
3311;SDS011;1668;49.648;8.570;2022-12-10T06:55:37;20.10;;;13.47;;
3311;SDS011;1668;49.648;8.570;2022-12-10T06:58:05;23.60;;;13.90;;
3311;SDS011;1668;49.648;8.570;2022-12-10T07:00:34;24.57;;;13.80;;
3311;SDS011;1668;49.648;8.570;2022-12-10T07:03:01;20.50;;;12.77;;
3311;SDS011;1668;49.648;8.570;2022-12-10T07:05:29;19.33;;;11.90;;
3311;SDS011;1668;49.648;8.570;2022-12-10T07:07:55;21.27;;;12.67;;
3311;SDS011;1668;49.648;8.570;2022-12-10T07:10:23;21.50;;;12.47;;
3311;SDS011;1668;49.648;8.570;2022-12-10T07:12:50;21.13;;;12.87;;
3311;SDS011;1668;49.648;8.570;2022-12-10T07:15:17;19.67;;;12.47;;
3311;SDS011;1668;49.648;8.570;2022-12-10T07:17:44;19.97;;;12.57;;
3311;SDS011;1668;49.648;8.570;2022-12-10T07:20:11;21.83;;;12.40;;
3311;SDS011;1668;49.648;8.570;2022-12-10T07:22:38;19.40;;;12.20;;
3311;SDS011;1668;49.648;8.570;2022-12-10T07:25:05;18.30;;;11.40;;
3311;SDS011;1668;49.648;8.570;2022-12-10T07:27:33;19.03;;;11.27;;
3311;SDS011;1668;49.648;8.570;2022-12-10T07:30:00;18.43;;;11.67;;
3311;SDS011;1668;49.648;8.570;2022-12-10T07:32:27;20.80;;;12.03;;
3311;SDS011;1668;49.648;8.570;2022-12-10T07:34:54;17.67;;;10.53;;
3311;SDS011;1668;49.648;8.570;2022-12-10T07:37:21;17.90;;;10.87;;
3311;SDS011;1668;49.648;8.570;2022-12-10T07:39:48;16.70;;;11.30;;
3311;SDS011;1668;49.648;8.570;2022-12-10T07:42:15;27.73;;;12.70;;
3311;SDS011;1668;49.648;8.570;2022-12-10T07:44:44;17.33;;;10.60;;
3311;SDS011;1668;49.648;8.570;2022-12-10T07:47:11;19.13;;;11.57;;
3311;SDS011;1668;49.648;8.570;2022-12-10T07:49:38;17.13;;;11.40;;
3311;SDS011;1668;49.648;8.570;2022-12-10T07:52:05;17.23;;;11.07;;
3311;SDS011;1668;49.648;8.570;2022-12-10T07:54:33;16.83;;;10.67;;
3311;SDS011;1668;49.648;8.570;2022-12-10T07:57:01;16.30;;;11.10;;
3311;SDS011;1668;49.648;8.570;2022-12-10T07:59:28;15.37;;;10.10;;
3311;SDS011;1668;49.648;8.570;2022-12-10T08:01:57;14.47;;;10.07;;
3311;SDS011;1668;49.648;8.570;2022-12-10T08:04:27;16.70;;;10.83;;
3311;SDS011;1668;49.648;8.570;2022-12-10T08:06:53;18.17;;;11.27;;
3311;SDS011;1668;49.648;8.570;2022-12-10T08:09:21;17.77;;;10.70;;
3311;SDS011;1668;49.648;8.570;2022-12-10T08:11:47;15.77;;;10.30;;
3311;SDS011;1668;49.648;8.570;2022-12-10T08:14:14;15.10;;;10.13;;
3311;SDS011;1668;49.648;8.570;2022-12-10T08:16:41;15.83;;;10.43;;
3311;SDS011;1668;49.648;8.570;2022-12-10T08:19:09;17.77;;;10.67;;
3311;SDS011;1668;49.648;8.570;2022-12-10T08:21:36;17.20;;;11.10;;
3311;SDS011;1668;49.648;8.570;2022-12-10T08:24:03;18.90;;;10.63;;
3311;SDS011;1668;49.648;8.570;2022-12-10T08:26:31;13.63;;;10.17;;
3311;SDS011;1668;49.648;8.570;2022-12-10T08:28:59;17.53;;;11.00;;
3311;SDS011;1668;49.648;8.570;2022-12-10T08:31:27;16.50;;;10.87;;
3311;SDS011;1668;49.648;8.570;2022-12-10T08:33:54;16.87;;;10.80;;
3311;SDS011;1668;49.648;8.570;2022-12-10T08:36:22;17.30;;;10.60;;
3311;SDS011;1668;49.648;8.570;2022-12-10T08:38:49;18.57;;;11.50;;
3311;SDS011;1668;49.648;8.570;2022-12-10T08:41:17;19.80;;;11.67;;
3311;SDS011;1668;49.648;8.570;2022-12-10T08:43:45;15.80;;;10.93;;
3311;SDS011;1668;49.648;8.570;2022-12-10T08:46:13;17.43;;;10.63;;
3311;SDS011;1668;49.648;8.570;2022-12-10T08:48:41;15.57;;;9.60;;
3311;SDS011;1668;49.648;8.570;2022-12-10T08:51:08;16.47;;;10.90;;
3311;SDS011;1668;49.648;8.570;2022-12-10T08:53:38;14.77;;;9.83;;
3311;SDS011;1668;49.648;8.570;2022-12-10T08:56:05;16.47;;;10.37;;
3311;SDS011;1668;49.648;8.570;2022-12-10T08:58:33;16.03;;;11.20;;
3311;SDS011;1668;49.648;8.570;2022-12-10T09:01:00;19.03;;;11.83;;
3311;SDS011;1668;49.648;8.570;2022-12-10T09:03:32;18.90;;;11.13;;
3311;SDS011;1668;49.648;8.570;2022-12-10T09:06:01;15.90;;;10.57;;
3311;SDS011;1668;49.648;8.570;2022-12-10T09:08:29;17.00;;;10.50;;
3311;SDS011;1668;49.648;8.570;2022-12-10T09:11:00;15.53;;;9.97;;
3311;SDS011;1668;49.648;8.570;2022-12-10T09:13:31;18.43;;;10.47;;
3311;SDS011;1668;49.648;8.570;2022-12-10T09:15:58;16.07;;;10.67;;
3311;SDS011;1668;49.648;8.570;2022-12-10T09:18:25;16.60;;;10.43;;
3311;SDS011;1668;49.648;8.570;2022-12-10T09:20:53;14.90;;;10.13;;
3311;SDS011;1668;49.648;8.570;2022-12-10T09:23:20;16.83;;;10.57;;
3311;SDS011;1668;49.648;8.570;2022-12-10T09:25:47;16.53;;;10.50;;
3311;SDS011;1668;49.648;8.570;2022-12-10T09:28:15;14.70;;;10.03;;
3311;SDS011;1668;49.648;8.570;2022-12-10T09:30:42;16.33;;;10.43;;
3311;SDS011;1668;49.648;8.570;2022-12-10T09:33:09;16.53;;;10.40;;
3311;SDS011;1668;49.648;8.570;2022-12-10T09:35:39;13.80;;;9.73;;
3311;SDS011;1668;49.648;8.570;2022-12-10T09:38:06;18.67;;;10.80;;
3311;SDS011;1668;49.648;8.570;2022-12-10T09:40:35;16.27;;;10.30;;
3311;SDS011;1668;49.648;8.570;2022-12-10T09:43:13;18.13;;;10.40;;
3311;SDS011;1668;49.648;8.570;2022-12-10T09:45:48;15.50;;;11.13;;
3311;SDS011;1668;49.648;8.570;2022-12-10T09:48:28;15.40;;;10.20;;
3311;SDS011;1668;49.648;8.570;2022-12-10T09:51:02;15.33;;;10.77;;
3311;SDS011;1668;49.648;8.570;2022-12-10T09:53:35;17.07;;;11.00;;
3311;SDS011;1668;49.648;8.570;2022-12-10T09:56:04;17.87;;;12.03;;
3311;SDS011;1668;49.648;8.570;2022-12-10T09:58:34;19.37;;;10.87;;
3311;SDS011;1668;49.648;8.570;2022-12-10T10:01:04;16.73;;;11.30;;
3311;SDS011;1668;49.648;8.570;2022-12-10T10:03:36;17.03;;;10.60;;
3311;SDS011;1668;49.648;8.570;2022-12-10T10:06:06;16.83;;;10.70;;
3311;SDS011;1668;49.648;8.570;2022-12-10T10:08:38;17.70;;;11.40;;
3311;SDS011;1668;49.648;8.570;2022-12-10T10:11:08;18.10;;;10.70;;
3311;SDS011;1668;49.648;8.570;2022-12-10T10:13:42;16.50;;;11.03;;
3311;SDS011;1668;49.648;8.570;2022-12-10T10:16:16;26.50;;;12.13;;
3311;SDS011;1668;49.648;8.570;2022-12-10T10:18:50;19.93;;;11.60;;
3311;SDS011;1668;49.648;8.570;2022-12-10T10:21:23;16.47;;;10.70;;
3311;SDS011;1668;49.648;8.570;2022-12-10T10:23:51;16.70;;;10.77;;
3311;SDS011;1668;49.648;8.570;2022-12-10T10:26:18;16.73;;;10.87;;
3311;SDS011;1668;49.648;8.570;2022-12-10T10:28:47;31.93;;;11.47;;
3311;SDS011;1668;49.648;8.570;2022-12-10T10:31:20;17.03;;;10.30;;
3311;SDS011;1668;49.648;8.570;2022-12-10T10:33:50;16.23;;;10.10;;
3311;SDS011;1668;49.648;8.570;2022-12-10T10:36:25;17.70;;;10.93;;
3311;SDS011;1668;49.648;8.570;2022-12-10T10:38:54;16.70;;;11.53;;
3311;SDS011;1668;49.648;8.570;2022-12-10T10:41:21;15.00;;;9.40;;
3311;SDS011;1668;49.648;8.570;2022-12-10T10:43:53;13.80;;;10.20;;
3311;SDS011;1668;49.648;8.570;2022-12-10T10:46:26;15.30;;;10.43;;
3311;SDS011;1668;49.648;8.570;2022-12-10T10:48:54;15.23;;;10.13;;
3311;SDS011;1668;49.648;8.570;2022-12-10T10:51:45;15.33;;;10.70;;
3311;SDS011;1668;49.648;8.570;2022-12-10T10:54:12;14.87;;;10.70;;
3311;SDS011;1668;49.648;8.570;2022-12-10T10:56:58;14.13;;;9.93;;
3311;SDS011;1668;49.648;8.570;2022-12-10T10:59:31;15.13;;;9.77;;
3311;SDS011;1668;49.648;8.570;2022-12-10T11:02:03;14.60;;;9.97;;
3311;SDS011;1668;49.648;8.570;2022-12-10T11:04:44;13.57;;;9.40;;
3311;SDS011;1668;49.648;8.570;2022-12-10T11:07:15;13.47;;;9.60;;
3311;SDS011;1668;49.648;8.570;2022-12-10T11:09:48;16.97;;;11.13;;
3311;SDS011;1668;49.648;8.570;2022-12-10T11:17:58;13.90;;;9.20;;
3311;SDS011;1668;49.648;8.570;2022-12-10T11:20:27;18.13;;;10.47;;
3311;SDS011;1668;49.648;8.570;2022-12-10T11:22:57;15.13;;;10.10;;
3311;SDS011;1668;49.648;8.570;2022-12-10T11:25:30;14.53;;;9.33;;
3311;SDS011;1668;49.648;8.570;2022-12-10T11:28:06;14.50;;;10.10;;
3311;SDS011;1668;49.648;8.570;2022-12-10T11:31:01;13.33;;;9.40;;
3311;SDS011;1668;49.648;8.570;2022-12-10T11:33:41;14.60;;;9.77;;
3311;SDS011;1668;49.648;8.570;2022-12-10T11:36:20;13.67;;;9.40;;
3311;SDS011;1668;49.648;8.570;2022-12-10T11:38:58;12.53;;;9.10;;
3311;SDS011;1668;49.648;8.570;2022-12-10T11:41:35;16.00;;;10.40;;
3311;SDS011;1668;49.648;8.570;2022-12-10T11:44:12;16.07;;;10.13;;
3311;SDS011;1668;49.648;8.570;2022-12-10T11:46:56;14.13;;;9.47;;
3311;SDS011;1668;49.648;8.570;2022-12-10T11:49:42;16.80;;;10.90;;
3311;SDS011;1668;49.648;8.570;2022-12-10T11:52:20;17.97;;;9.97;;
3311;SDS011;1668;49.648;8.570;2022-12-10T11:54:58;14.83;;;10.43;;
3311;SDS011;1668;49.648;8.570;2022-12-10T11:57:35;14.37;;;9.67;;
3311;SDS011;1668;49.648;8.570;2022-12-10T12:00:14;14.40;;;10.10;;
3311;SDS011;1668;49.648;8.570;2022-12-10T12:03:08;15.80;;;10.37;;
3311;SDS011;1668;49.648;8.570;2022-12-10T12:05:52;15.07;;;10.37;;
3311;SDS011;1668;49.648;8.570;2022-12-10T12:08:43;15.50;;;10.30;;
3311;SDS011;1668;49.648;8.570;2022-12-10T12:11:23;17.03;;;10.57;;
3311;SDS011;1668;49.648;8.570;2022-12-10T12:14:06;15.10;;;10.73;;
3311;SDS011;1668;49.648;8.570;2022-12-10T12:16:39;16.50;;;10.57;;
3311;SDS011;1668;49.648;8.570;2022-12-10T12:19:12;16.57;;;10.67;;
3311;SDS011;1668;49.648;8.570;2022-12-10T12:21:43;15.17;;;10.47;;
3311;SDS011;1668;49.648;8.570;2022-12-10T12:24:14;17.20;;;12.07;;
3311;SDS011;1668;49.648;8.570;2022-12-10T12:26:46;16.93;;;11.17;;
3311;SDS011;1668;49.648;8.570;2022-12-10T12:29:20;13.70;;;9.70;;
3311;SDS011;1668;49.648;8.570;2022-12-10T12:31:53;14.83;;;10.33;;
3311;SDS011;1668;49.648;8.570;2022-12-10T12:34:25;14.73;;;10.20;;
3311;SDS011;1668;49.648;8.570;2022-12-10T12:36:59;15.33;;;10.70;;
3311;SDS011;1668;49.648;8.570;2022-12-10T12:39:28;15.33;;;10.63;;
3311;SDS011;1668;49.648;8.570;2022-12-10T12:42:01;14.17;;;9.17;;
3311;SDS011;1668;49.648;8.570;2022-12-10T12:44:35;15.43;;;10.60;;
3311;SDS011;1668;49.648;8.570;2022-12-10T12:47:20;15.90;;;10.17;;
3311;SDS011;1668;49.648;8.570;2022-12-10T12:49:53;15.60;;;10.00;;
3311;SDS011;1668;49.648;8.570;2022-12-10T12:52:25;14.50;;;10.10;;
3311;SDS011;1668;49.648;8.570;2022-12-10T12:54:57;15.20;;;10.07;;
3311;SDS011;1668;49.648;8.570;2022-12-10T12:57:29;13.23;;;9.70;;
3311;SDS011;1668;49.648;8.570;2022-12-10T13:00:03;14.47;;;9.70;;
3311;SDS011;1668;49.648;8.570;2022-12-10T13:05:26;15.27;;;9.63;;
3311;SDS011;1668;49.648;8.570;2022-12-10T13:10:57;15.23;;;10.00;;
3311;SDS011;1668;49.648;8.570;2022-12-10T13:13:29;14.90;;;10.03;;
3311;SDS011;1668;49.648;8.570;2022-12-10T13:19:07;16.73;;;11.27;;
3311;SDS011;1668;49.648;8.570;2022-12-10T13:21:58;13.07;;;9.23;;
3311;SDS011;1668;49.648;8.570;2022-12-10T13:24:43;16.70;;;10.80;;
3311;SDS011;1668;49.648;8.570;2022-12-10T13:27:38;13.27;;;9.30;;
3311;SDS011;1668;49.648;8.570;2022-12-10T13:30:27;14.20;;;9.60;;
3311;SDS011;1668;49.648;8.570;2022-12-10T13:33:03;17.70;;;10.20;;
3311;SDS011;1668;49.648;8.570;2022-12-10T13:38:27;14.40;;;9.43;;
3311;SDS011;1668;49.648;8.570;2022-12-10T13:40:58;36.30;;;22.27;;
3311;SDS011;1668;49.648;8.570;2022-12-10T13:43:51;28.83;;;19.03;;
3311;SDS011;1668;49.648;8.570;2022-12-10T13:46:50;20.60;;;12.70;;
3311;SDS011;1668;49.648;8.570;2022-12-10T13:49:19;19.60;;;12.23;;
3311;SDS011;1668;49.648;8.570;2022-12-10T13:51:51;17.10;;;10.77;;
3311;SDS011;1668;49.648;8.570;2022-12-10T13:57:43;15.00;;;10.87;;
3311;SDS011;1668;49.648;8.570;2022-12-10T14:00:32;15.03;;;9.80;;
3311;SDS011;1668;49.648;8.570;2022-12-10T14:03:14;15.60;;;10.60;;
3311;SDS011;1668;49.648;8.570;2022-12-10T14:08:52;19.60;;;13.20;;
3311;SDS011;1668;49.648;8.570;2022-12-10T14:11:25;12.80;;;9.20;;
3311;SDS011;1668;49.648;8.570;2022-12-10T14:13:56;14.90;;;10.07;;
3311;SDS011;1668;49.648;8.570;2022-12-10T14:16:26;17.40;;;10.20;;
3311;SDS011;1668;49.648;8.570;2022-12-10T14:18:56;17.10;;;10.20;;
3311;SDS011;1668;49.648;8.570;2022-12-10T14:21:26;19.00;;;10.80;;
3311;SDS011;1668;49.648;8.570;2022-12-10T14:23:58;14.40;;;9.27;;
3311;SDS011;1668;49.648;8.570;2022-12-10T14:26:28;11.20;;;8.03;;
3311;SDS011;1668;49.648;8.570;2022-12-10T14:28:56;17.77;;;9.80;;
3311;SDS011;1668;49.648;8.570;2022-12-10T14:31:26;23.63;;;12.23;;
3311;SDS011;1668;49.648;8.570;2022-12-10T14:33:57;16.13;;;9.60;;
3311;SDS011;1668;49.648;8.570;2022-12-10T14:36:28;14.90;;;9.87;;
3311;SDS011;1668;49.648;8.570;2022-12-10T14:38:57;14.20;;;10.10;;
3311;SDS011;1668;49.648;8.570;2022-12-10T14:41:27;22.10;;;13.57;;
3311;SDS011;1668;49.648;8.570;2022-12-10T14:43:57;18.50;;;11.93;;
3311;SDS011;1668;49.648;8.570;2022-12-10T14:46:28;17.67;;;11.80;;
3311;SDS011;1668;49.648;8.570;2022-12-10T14:48:57;19.90;;;12.80;;
3311;SDS011;1668;49.648;8.570;2022-12-10T14:51:24;18.27;;;12.83;;
3311;SDS011;1668;49.648;8.570;2022-12-10T14:53:53;24.00;;;13.60;;
3311;SDS011;1668;49.648;8.570;2022-12-10T14:56:23;19.63;;;11.57;;
3311;SDS011;1668;49.648;8.570;2022-12-10T14:58:57;17.30;;;11.70;;
3311;SDS011;1668;49.648;8.570;2022-12-10T15:01:30;16.70;;;11.17;;
3311;SDS011;1668;49.648;8.570;2022-12-10T15:03:59;16.47;;;11.33;;
3311;SDS011;1668;49.648;8.570;2022-12-10T15:06:31;16.00;;;10.80;;
3311;SDS011;1668;49.648;8.570;2022-12-10T15:09:00;15.00;;;9.70;;
3311;SDS011;1668;49.648;8.570;2022-12-10T15:11:29;14.43;;;9.40;;
3311;SDS011;1668;49.648;8.570;2022-12-10T15:13:59;12.23;;;8.70;;
3311;SDS011;1668;49.648;8.570;2022-12-10T15:16:30;14.57;;;9.93;;
3311;SDS011;1668;49.648;8.570;2022-12-10T15:19:07;14.33;;;9.80;;
3311;SDS011;1668;49.648;8.570;2022-12-10T15:21:40;14.73;;;10.47;;
3311;SDS011;1668;49.648;8.570;2022-12-10T15:24:14;15.40;;;10.43;;
3311;SDS011;1668;49.648;8.570;2022-12-10T15:26:45;16.33;;;11.43;;
3311;SDS011;1668;49.648;8.570;2022-12-10T15:32:11;17.30;;;11.37;;
3311;SDS011;1668;49.648;8.570;2022-12-10T15:34:44;19.23;;;11.20;;
3311;SDS011;1668;49.648;8.570;2022-12-10T15:37:14;17.07;;;11.27;;